sensor_id;sensor_type;location;lat;lon;timestamp;temperature;humidity
24158;DHT22;12316;50.904;4.200;2023-05-10T00:01:48;14.80;99.90
24158;DHT22;12316;50.904;4.200;2023-05-10T00:04:13;14.80;99.90
24158;DHT22;12316;50.904;4.200;2023-05-10T00:06:39;14.90;99.90
24158;DHT22;12316;50.904;4.200;2023-05-10T00:09:05;14.90;99.90
24158;DHT22;12316;50.904;4.200;2023-05-10T00:11:30;14.90;99.90
24158;DHT22;12316;50.904;4.200;2023-05-10T00:13:56;14.90;99.90
24158;DHT22;12316;50.904;4.200;2023-05-10T00:16:22;14.90;99.90
24158;DHT22;12316;50.904;4.200;2023-05-10T00:18:47;14.80;99.90
24158;DHT22;12316;50.904;4.200;2023-05-10T00:21:13;14.90;99.90
24158;DHT22;12316;50.904;4.200;2023-05-10T00:23:39;14.90;99.90
24158;DHT22;12316;50.904;4.200;2023-05-10T00:26:05;14.90;99.90
24158;DHT22;12316;50.904;4.200;2023-05-10T00:28:31;14.90;99.90
24158;DHT22;12316;50.904;4.200;2023-05-10T00:30:56;15.00;99.90
24158;DHT22;12316;50.904;4.200;2023-05-10T00:33:22;14.90;99.90
24158;DHT22;12316;50.904;4.200;2023-05-10T00:35:48;14.90;99.90
24158;DHT22;12316;50.904;4.200;2023-05-10T00:38:14;14.80;99.90
24158;DHT22;12316;50.904;4.200;2023-05-10T00:40:39;14.80;99.90
24158;DHT22;12316;50.904;4.200;2023-05-10T00:43:05;14.80;99.90
24158;DHT22;12316;50.904;4.200;2023-05-10T00:45:33;14.90;99.90
24158;DHT22;12316;50.904;4.200;2023-05-10T00:48:01;14.90;99.90
24158;DHT22;12316;50.904;4.200;2023-05-10T00:50:28;15.00;99.90
24158;DHT22;12316;50.904;4.200;2023-05-10T00:52:54;14.90;99.90
24158;DHT22;12316;50.904;4.200;2023-05-10T00:55:20;14.90;99.90
24158;DHT22;12316;50.904;4.200;2023-05-10T00:57:47;14.90;99.90
24158;DHT22;12316;50.904;4.200;2023-05-10T01:00:13;15.00;99.90
24158;DHT22;12316;50.904;4.200;2023-05-10T01:02:46;15.00;99.90
24158;DHT22;12316;50.904;4.200;2023-05-10T01:05:12;15.00;99.90
24158;DHT22;12316;50.904;4.200;2023-05-10T01:07:38;15.00;99.90
24158;DHT22;12316;50.904;4.200;2023-05-10T01:10:06;14.90;99.90
24158;DHT22;12316;50.904;4.200;2023-05-10T01:12:32;14.80;99.90
24158;DHT22;12316;50.904;4.200;2023-05-10T01:14:58;14.80;99.90
24158;DHT22;12316;50.904;4.200;2023-05-10T01:17:25;14.70;99.90
24158;DHT22;12316;50.904;4.200;2023-05-10T01:19:51;14.70;99.90
24158;DHT22;12316;50.904;4.200;2023-05-10T01:38:29;14.70;99.90
24158;DHT22;12316;50.904;4.200;2023-05-10T01:41:17;14.60;99.90
24158;DHT22;12316;50.904;4.200;2023-05-10T01:46:41;14.70;99.90
24158;DHT22;12316;50.904;4.200;2023-05-10T01:49:47;14.70;99.90
24158;DHT22;12316;50.904;4.200;2023-05-10T01:52:18;14.70;99.90
24158;DHT22;12316;50.904;4.200;2023-05-10T01:55:13;14.70;99.90
24158;DHT22;12316;50.904;4.200;2023-05-10T01:57:39;14.60;99.90
24158;DHT22;12316;50.904;4.200;2023-05-10T02:00:07;14.60;99.90
24158;DHT22;12316;50.904;4.200;2023-05-10T02:02:40;14.60;99.90
24158;DHT22;12316;50.904;4.200;2023-05-10T02:05:08;14.60;99.90
24158;DHT22;12316;50.904;4.200;2023-05-10T02:07:36;14.60;99.90
24158;DHT22;12316;50.904;4.200;2023-05-10T02:10:05;14.70;99.90
24158;DHT22;12316;50.904;4.200;2023-05-10T02:12:36;14.70;99.90
24158;DHT22;12316;50.904;4.200;2023-05-10T02:15:05;14.60;99.90
24158;DHT22;12316;50.904;4.200;2023-05-10T02:17:32;14.50;99.90
24158;DHT22;12316;50.904;4.200;2023-05-10T02:19:59;14.50;99.90
24158;DHT22;12316;50.904;4.200;2023-05-10T02:22:27;14.50;99.90
24158;DHT22;12316;50.904;4.200;2023-05-10T02:24:55;14.50;99.90
24158;DHT22;12316;50.904;4.200;2023-05-10T02:27:24;14.50;99.90
24158;DHT22;12316;50.904;4.200;2023-05-10T02:29:53;14.40;99.90
24158;DHT22;12316;50.904;4.200;2023-05-10T02:32:21;14.50;99.90
24158;DHT22;12316;50.904;4.200;2023-05-10T02:34:47;14.40;99.90
24158;DHT22;12316;50.904;4.200;2023-05-10T02:37:21;14.40;99.90
24158;DHT22;12316;50.904;4.200;2023-05-10T02:39:49;14.40;99.90
24158;DHT22;12316;50.904;4.200;2023-05-10T02:42:18;14.30;99.90
24158;DHT22;12316;50.904;4.200;2023-05-10T02:44:48;14.40;99.90
24158;DHT22;12316;50.904;4.200;2023-05-10T02:47:15;14.30;99.90
24158;DHT22;12316;50.904;4.200;2023-05-10T02:49:41;14.30;99.90
24158;DHT22;12316;50.904;4.200;2023-05-10T02:52:07;14.40;99.90
24158;DHT22;12316;50.904;4.200;2023-05-10T02:54:43;14.30;99.90
24158;DHT22;12316;50.904;4.200;2023-05-10T02:57:11;14.30;99.90
24158;DHT22;12316;50.904;4.200;2023-05-10T02:59:40;14.20;99.90
24158;DHT22;12316;50.904;4.200;2023-05-10T03:02:10;14.10;99.90
24158;DHT22;12316;50.904;4.200;2023-05-10T03:04:36;14.20;99.90
24158;DHT22;12316;50.904;4.200;2023-05-10T03:07:02;14.20;99.90
24158;DHT22;12316;50.904;4.200;2023-05-10T03:09:28;14.10;99.90
24158;DHT22;12316;50.904;4.200;2023-05-10T03:17:55;13.90;99.90
24158;DHT22;12316;50.904;4.200;2023-05-10T03:20:25;13.90;99.90
24158;DHT22;12316;50.904;4.200;2023-05-10T03:22:55;13.90;99.90
24158;DHT22;12316;50.904;4.200;2023-05-10T03:25:24;14.00;99.90
24158;DHT22;12316;50.904;4.200;2023-05-10T03:27:52;13.90;99.90
24158;DHT22;12316;50.904;4.200;2023-05-10T03:30:18;13.90;99.90
24158;DHT22;12316;50.904;4.200;2023-05-10T03:32:44;14.00;99.90
24158;DHT22;12316;50.904;4.200;2023-05-10T03:35:12;14.00;99.90
24158;DHT22;12316;50.904;4.200;2023-05-10T03:37:39;14.00;99.90
24158;DHT22;12316;50.904;4.200;2023-05-10T03:40:06;14.10;99.90
24158;DHT22;12316;50.904;4.200;2023-05-10T03:42:32;14.20;99.90
24158;DHT22;12316;50.904;4.200;2023-05-10T03:44:57;14.10;99.90
24158;DHT22;12316;50.904;4.200;2023-05-10T03:47:23;14.10;99.90
24158;DHT22;12316;50.904;4.200;2023-05-10T03:49:49;14.20;99.90
24158;DHT22;12316;50.904;4.200;2023-05-10T03:52:14;14.20;99.90
24158;DHT22;12316;50.904;4.200;2023-05-10T03:54:40;14.30;99.90
24158;DHT22;12316;50.904;4.200;2023-05-10T03:57:06;14.20;99.90
24158;DHT22;12316;50.904;4.200;2023-05-10T03:59:31;14.30;99.90
24158;DHT22;12316;50.904;4.200;2023-05-10T04:01:57;14.20;99.90
24158;DHT22;12316;50.904;4.200;2023-05-10T04:04:24;14.20;99.90
24158;DHT22;12316;50.904;4.200;2023-05-10T04:06:49;14.20;99.90
24158;DHT22;12316;50.904;4.200;2023-05-10T04:09:15;14.20;99.90
24158;DHT22;12316;50.904;4.200;2023-05-10T04:11:42;14.30;99.90
24158;DHT22;12316;50.904;4.200;2023-05-10T04:14:07;14.30;99.90
24158;DHT22;12316;50.904;4.200;2023-05-10T04:16:33;14.30;99.90
24158;DHT22;12316;50.904;4.200;2023-05-10T04:18:59;14.20;99.90
24158;DHT22;12316;50.904;4.200;2023-05-10T04:21:25;14.20;99.90
24158;DHT22;12316;50.904;4.200;2023-05-10T04:23:51;14.20;99.90
24158;DHT22;12316;50.904;4.200;2023-05-10T04:26:17;14.20;99.90
24158;DHT22;12316;50.904;4.200;2023-05-10T04:28:43;14.10;99.90
24158;DHT22;12316;50.904;4.200;2023-05-10T04:31:09;14.20;99.90
24158;DHT22;12316;50.904;4.200;2023-05-10T04:33:36;14.20;99.90
24158;DHT22;12316;50.904;4.200;2023-05-10T04:36:03;14.30;99.90
24158;DHT22;12316;50.904;4.200;2023-05-10T04:38:29;14.40;99.90
24158;DHT22;12316;50.904;4.200;2023-05-10T04:41:06;14.40;99.90
24158;DHT22;12316;50.904;4.200;2023-05-10T04:43:32;14.50;99.90
24158;DHT22;12316;50.904;4.200;2023-05-10T04:45:58;14.40;99.90
24158;DHT22;12316;50.904;4.200;2023-05-10T04:48:24;14.30;99.90
24158;DHT22;12316;50.904;4.200;2023-05-10T04:50:50;14.30;99.90
24158;DHT22;12316;50.904;4.200;2023-05-10T04:53:16;14.20;99.90
24158;DHT22;12316;50.904;4.200;2023-05-10T04:55:42;14.30;99.90
24158;DHT22;12316;50.904;4.200;2023-05-10T04:58:07;14.20;99.90
24158;DHT22;12316;50.904;4.200;2023-05-10T05:00:33;14.20;99.90
24158;DHT22;12316;50.904;4.200;2023-05-10T05:02:59;14.20;99.90
24158;DHT22;12316;50.904;4.200;2023-05-10T05:05:25;14.20;99.90
24158;DHT22;12316;50.904;4.200;2023-05-10T05:07:50;14.30;99.90
24158;DHT22;12316;50.904;4.200;2023-05-10T05:10:16;14.40;99.90
24158;DHT22;12316;50.904;4.200;2023-05-10T05:12:42;14.50;99.90
24158;DHT22;12316;50.904;4.200;2023-05-10T05:15:07;14.50;99.90
24158;DHT22;12316;50.904;4.200;2023-05-10T05:17:35;14.60;99.90
24158;DHT22;12316;50.904;4.200;2023-05-10T05:20:01;14.60;99.90
24158;DHT22;12316;50.904;4.200;2023-05-10T05:22:27;14.70;99.90
24158;DHT22;12316;50.904;4.200;2023-05-10T05:24:57;14.70;99.90
24158;DHT22;12316;50.904;4.200;2023-05-10T05:27:24;14.70;99.90
24158;DHT22;12316;50.904;4.200;2023-05-10T05:29:55;14.70;99.90
24158;DHT22;12316;50.904;4.200;2023-05-10T05:32:21;14.80;99.90
24158;DHT22;12316;50.904;4.200;2023-05-10T05:34:47;14.80;99.90
24158;DHT22;12316;50.904;4.200;2023-05-10T05:37:17;14.90;99.90
24158;DHT22;12316;50.904;4.200;2023-05-10T05:39:44;15.00;99.90
24158;DHT22;12316;50.904;4.200;2023-05-10T05:42:10;15.00;99.90
24158;DHT22;12316;50.904;4.200;2023-05-10T05:44:36;14.90;99.90
24158;DHT22;12316;50.904;4.200;2023-05-10T05:47:02;14.80;99.90
24158;DHT22;12316;50.904;4.200;2023-05-10T05:49:27;14.70;99.90
24158;DHT22;12316;50.904;4.200;2023-05-10T05:51:54;14.70;99.90
24158;DHT22;12316;50.904;4.200;2023-05-10T05:54:21;14.70;99.90
24158;DHT22;12316;50.904;4.200;2023-05-10T05:56:46;14.60;99.90
24158;DHT22;12316;50.904;4.200;2023-05-10T05:59:13;14.60;99.90
24158;DHT22;12316;50.904;4.200;2023-05-10T06:01:39;14.60;99.90
24158;DHT22;12316;50.904;4.200;2023-05-10T06:04:05;14.70;99.90
24158;DHT22;12316;50.904;4.200;2023-05-10T06:06:30;14.70;99.90
24158;DHT22;12316;50.904;4.200;2023-05-10T06:08:57;14.70;99.90
24158;DHT22;12316;50.904;4.200;2023-05-10T06:11:23;14.80;99.90
24158;DHT22;12316;50.904;4.200;2023-05-10T06:13:49;14.90;99.90
24158;DHT22;12316;50.904;4.200;2023-05-10T06:16:14;14.90;99.90
24158;DHT22;12316;50.904;4.200;2023-05-10T06:18:40;14.90;99.90
24158;DHT22;12316;50.904;4.200;2023-05-10T06:21:06;14.80;99.90
24158;DHT22;12316;50.904;4.200;2023-05-10T06:23:32;14.80;99.90
24158;DHT22;12316;50.904;4.200;2023-05-10T06:25:58;14.70;99.90
24158;DHT22;12316;50.904;4.200;2023-05-10T06:28:24;14.70;99.90
24158;DHT22;12316;50.904;4.200;2023-05-10T06:30:51;14.80;99.90
24158;DHT22;12316;50.904;4.200;2023-05-10T06:33:16;14.90;99.90
24158;DHT22;12316;50.904;4.200;2023-05-10T06:35:42;14.90;99.90
24158;DHT22;12316;50.904;4.200;2023-05-10T06:38:08;14.90;99.90
24158;DHT22;12316;50.904;4.200;2023-05-10T06:40:34;15.10;99.90
24158;DHT22;12316;50.904;4.200;2023-05-10T06:43:01;15.10;99.90
24158;DHT22;12316;50.904;4.200;2023-05-10T06:45:26;15.20;99.90
24158;DHT22;12316;50.904;4.200;2023-05-10T06:47:52;15.10;99.90
24158;DHT22;12316;50.904;4.200;2023-05-10T06:50:18;15.10;99.90
24158;DHT22;12316;50.904;4.200;2023-05-10T06:52:43;15.10;99.90
24158;DHT22;12316;50.904;4.200;2023-05-10T06:55:09;15.10;99.90
24158;DHT22;12316;50.904;4.200;2023-05-10T06:57:36;15.00;99.90
24158;DHT22;12316;50.904;4.200;2023-05-10T07:00:02;14.90;99.90
24158;DHT22;12316;50.904;4.200;2023-05-10T07:02:31;15.00;99.90
24158;DHT22;12316;50.904;4.200;2023-05-10T07:04:56;15.10;99.90
24158;DHT22;12316;50.904;4.200;2023-05-10T07:07:22;15.10;99.90
24158;DHT22;12316;50.904;4.200;2023-05-10T07:09:48;15.20;99.90
24158;DHT22;12316;50.904;4.200;2023-05-10T07:12:15;15.10;99.90
24158;DHT22;12316;50.904;4.200;2023-05-10T07:14:41;15.00;99.90
24158;DHT22;12316;50.904;4.200;2023-05-10T07:17:07;15.00;99.90
24158;DHT22;12316;50.904;4.200;2023-05-10T07:19:33;15.10;99.90
24158;DHT22;12316;50.904;4.200;2023-05-10T07:21:59;15.20;99.90
24158;DHT22;12316;50.904;4.200;2023-05-10T07:24:24;15.40;99.90
24158;DHT22;12316;50.904;4.200;2023-05-10T07:26:50;15.50;99.90
24158;DHT22;12316;50.904;4.200;2023-05-10T07:29:16;15.70;99.90
24158;DHT22;12316;50.904;4.200;2023-05-10T07:31:42;15.70;99.90
24158;DHT22;12316;50.904;4.200;2023-05-10T07:34:08;15.70;99.90
24158;DHT22;12316;50.904;4.200;2023-05-10T07:36:34;15.70;99.90
24158;DHT22;12316;50.904;4.200;2023-05-10T07:39:00;15.60;99.90
24158;DHT22;12316;50.904;4.200;2023-05-10T07:41:26;15.50;99.90
24158;DHT22;12316;50.904;4.200;2023-05-10T07:43:52;15.20;99.90
24158;DHT22;12316;50.904;4.200;2023-05-10T07:46:18;15.20;99.90
24158;DHT22;12316;50.904;4.200;2023-05-10T07:48:45;15.30;99.90
24158;DHT22;12316;50.904;4.200;2023-05-10T07:51:11;15.40;99.90
24158;DHT22;12316;50.904;4.200;2023-05-10T07:53:38;15.30;99.90
24158;DHT22;12316;50.904;4.200;2023-05-10T07:56:26;15.40;99.90
24158;DHT22;12316;50.904;4.200;2023-05-10T07:58:55;15.30;99.90
24158;DHT22;12316;50.904;4.200;2023-05-10T08:01:21;15.30;99.90
24158;DHT22;12316;50.904;4.200;2023-05-10T08:03:47;15.10;99.90
24158;DHT22;12316;50.904;4.200;2023-05-10T08:06:15;15.20;99.90
24158;DHT22;12316;50.904;4.200;2023-05-10T08:08:41;15.00;99.90
24158;DHT22;12316;50.904;4.200;2023-05-10T08:11:06;14.90;99.90
24158;DHT22;12316;50.904;4.200;2023-05-10T08:13:32;14.90;99.90
24158;DHT22;12316;50.904;4.200;2023-05-10T08:15:58;14.90;99.90
24158;DHT22;12316;50.904;4.200;2023-05-10T08:18:23;14.90;99.90
24158;DHT22;12316;50.904;4.200;2023-05-10T08:20:50;15.00;99.90
24158;DHT22;12316;50.904;4.200;2023-05-10T08:23:15;14.70;99.90
24158;DHT22;12316;50.904;4.200;2023-05-10T08:25:41;14.70;99.90
24158;DHT22;12316;50.904;4.200;2023-05-10T08:28:07;14.70;99.90
24158;DHT22;12316;50.904;4.200;2023-05-10T08:30:32;14.70;99.90
24158;DHT22;12316;50.904;4.200;2023-05-10T08:32:58;14.70;99.90
24158;DHT22;12316;50.904;4.200;2023-05-10T08:35:24;14.80;99.90
24158;DHT22;12316;50.904;4.200;2023-05-10T08:37:50;14.90;99.90
24158;DHT22;12316;50.904;4.200;2023-05-10T08:40:19;15.00;99.90
24158;DHT22;12316;50.904;4.200;2023-05-10T08:42:54;14.80;99.90
24158;DHT22;12316;50.904;4.200;2023-05-10T08:45:23;14.80;99.90
24158;DHT22;12316;50.904;4.200;2023-05-10T08:47:49;14.70;99.90
24158;DHT22;12316;50.904;4.200;2023-05-10T08:50:17;14.90;99.90
24158;DHT22;12316;50.904;4.200;2023-05-10T08:52:45;14.80;99.90
24158;DHT22;12316;50.904;4.200;2023-05-10T08:55:13;14.80;99.90
24158;DHT22;12316;50.904;4.200;2023-05-10T08:57:39;14.90;99.90
24158;DHT22;12316;50.904;4.200;2023-05-10T09:00:06;14.80;99.90
24158;DHT22;12316;50.904;4.200;2023-05-10T09:02:32;14.90;99.90
24158;DHT22;12316;50.904;4.200;2023-05-10T09:04:58;14.90;99.90
24158;DHT22;12316;50.904;4.200;2023-05-10T09:07:23;14.70;99.90
24158;DHT22;12316;50.904;4.200;2023-05-10T09:09:49;14.70;99.90
24158;DHT22;12316;50.904;4.200;2023-05-10T09:12:15;14.90;99.90
24158;DHT22;12316;50.904;4.200;2023-05-10T09:14:42;15.10;99.90
24158;DHT22;12316;50.904;4.200;2023-05-10T09:17:09;15.30;99.90
24158;DHT22;12316;50.904;4.200;2023-05-10T09:19:35;15.50;99.90
24158;DHT22;12316;50.904;4.200;2023-05-10T09:22:01;15.50;99.90
24158;DHT22;12316;50.904;4.200;2023-05-10T09:24:29;15.60;99.90
24158;DHT22;12316;50.904;4.200;2023-05-10T09:26:56;15.60;99.90
24158;DHT22;12316;50.904;4.200;2023-05-10T09:29:23;15.60;99.90
24158;DHT22;12316;50.904;4.200;2023-05-10T09:31:50;15.80;99.90
24158;DHT22;12316;50.904;4.200;2023-05-10T09:34:31;15.80;99.90
24158;DHT22;12316;50.904;4.200;2023-05-10T09:37:00;15.80;99.90
24158;DHT22;12316;50.904;4.200;2023-05-10T09:39:36;15.70;99.90
24158;DHT22;12316;50.904;4.200;2023-05-10T09:42:06;15.80;99.90
24158;DHT22;12316;50.904;4.200;2023-05-10T09:44:33;15.80;99.90
24158;DHT22;12316;50.904;4.200;2023-05-10T09:47:00;15.80;99.90
24158;DHT22;12316;50.904;4.200;2023-05-10T09:49:26;15.80;99.90
24158;DHT22;12316;50.904;4.200;2023-05-10T09:52:04;15.70;99.90
24158;DHT22;12316;50.904;4.200;2023-05-10T09:54:31;15.60;99.90
24158;DHT22;12316;50.904;4.200;2023-05-10T09:56:57;15.60;99.90
24158;DHT22;12316;50.904;4.200;2023-05-10T09:59:25;15.70;99.90
24158;DHT22;12316;50.904;4.200;2023-05-10T10:01:52;15.60;99.90
24158;DHT22;12316;50.904;4.200;2023-05-10T10:04:19;15.70;99.90
24158;DHT22;12316;50.904;4.200;2023-05-10T10:06:46;15.70;99.90
24158;DHT22;12316;50.904;4.200;2023-05-10T10:09:12;15.90;99.90
24158;DHT22;12316;50.904;4.200;2023-05-10T10:11:39;16.00;99.90
24158;DHT22;12316;50.904;4.200;2023-05-10T10:14:05;16.20;99.90
24158;DHT22;12316;50.904;4.200;2023-05-10T10:16:32;16.30;99.90
24158;DHT22;12316;50.904;4.200;2023-05-10T10:18:58;16.40;99.90
24158;DHT22;12316;50.904;4.200;2023-05-10T10:21:23;16.60;99.90
24158;DHT22;12316;50.904;4.200;2023-05-10T10:23:50;16.60;99.90
24158;DHT22;12316;50.904;4.200;2023-05-10T10:26:17;16.60;99.90
24158;DHT22;12316;50.904;4.200;2023-05-10T10:28:51;16.60;99.90
24158;DHT22;12316;50.904;4.200;2023-05-10T10:34:01;17.00;99.90
24158;DHT22;12316;50.904;4.200;2023-05-10T10:36:29;17.10;99.90
24158;DHT22;12316;50.904;4.200;2023-05-10T10:38:58;17.20;99.90
24158;DHT22;12316;50.904;4.200;2023-05-10T10:41:57;17.30;99.90
24158;DHT22;12316;50.904;4.200;2023-05-10T10:44:34;17.30;99.90
24158;DHT22;12316;50.904;4.200;2023-05-10T10:49:53;17.20;99.90
24158;DHT22;12316;50.904;4.200;2023-05-10T10:55:04;16.90;99.90
24158;DHT22;12316;50.904;4.200;2023-05-10T10:57:33;17.00;99.90
24158;DHT22;12316;50.904;4.200;2023-05-10T11:02:49;16.90;99.90
24158;DHT22;12316;50.904;4.200;2023-05-10T11:05:40;17.20;99.90
24158;DHT22;12316;50.904;4.200;2023-05-10T11:10:36;17.00;99.90
24158;DHT22;12316;50.904;4.200;2023-05-10T11:13:04;17.00;99.90
24158;DHT22;12316;50.904;4.200;2023-05-10T11:15:35;16.90;99.90
24158;DHT22;12316;50.904;4.200;2023-05-10T11:20:42;17.10;99.90
24158;DHT22;12316;50.904;4.200;2023-05-10T11:23:12;17.30;99.90
24158;DHT22;12316;50.904;4.200;2023-05-10T11:25:44;17.50;99.90
24158;DHT22;12316;50.904;4.200;2023-05-10T11:28:12;17.60;99.90
24158;DHT22;12316;50.904;4.200;2023-05-10T11:30:39;17.50;99.90
24158;DHT22;12316;50.904;4.200;2023-05-10T11:33:06;17.30;99.90
24158;DHT22;12316;50.904;4.200;2023-05-10T11:35:40;17.30;99.90
24158;DHT22;12316;50.904;4.200;2023-05-10T11:38:09;17.30;99.90
24158;DHT22;12316;50.904;4.200;2023-05-10T11:40:36;17.20;99.90
24158;DHT22;12316;50.904;4.200;2023-05-10T11:43:03;17.10;99.90
24158;DHT22;12316;50.904;4.200;2023-05-10T11:45:31;17.10;99.90
24158;DHT22;12316;50.904;4.200;2023-05-10T11:47:58;17.00;99.90
24158;DHT22;12316;50.904;4.200;2023-05-10T11:50:24;16.90;99.90
24158;DHT22;12316;50.904;4.200;2023-05-10T11:52:55;16.80;99.90
24158;DHT22;12316;50.904;4.200;2023-05-10T11:55:21;16.80;99.90
24158;DHT22;12316;50.904;4.200;2023-05-10T11:57:51;16.90;99.90
24158;DHT22;12316;50.904;4.200;2023-05-10T12:00:16;17.00;99.90
24158;DHT22;12316;50.904;4.200;2023-05-10T12:02:42;17.10;99.90
24158;DHT22;12316;50.904;4.200;2023-05-10T12:05:08;17.10;99.90
24158;DHT22;12316;50.904;4.200;2023-05-10T12:07:35;17.20;99.90
24158;DHT22;12316;50.904;4.200;2023-05-10T12:10:09;17.20;99.90
24158;DHT22;12316;50.904;4.200;2023-05-10T12:12:42;17.20;99.90
24158;DHT22;12316;50.904;4.200;2023-05-10T12:15:19;16.90;99.90
24158;DHT22;12316;50.904;4.200;2023-05-10T12:17:46;17.00;99.90
24158;DHT22;12316;50.904;4.200;2023-05-10T12:20:23;17.10;99.90
24158;DHT22;12316;50.904;4.200;2023-05-10T12:22:51;17.20;99.90
24158;DHT22;12316;50.904;4.200;2023-05-10T12:25:23;17.30;99.90
24158;DHT22;12316;50.904;4.200;2023-05-10T12:27:54;17.30;99.90
24158;DHT22;12316;50.904;4.200;2023-05-10T12:30:25;17.50;99.90
24158;DHT22;12316;50.904;4.200;2023-05-10T12:32:52;17.60;99.90
24158;DHT22;12316;50.904;4.200;2023-05-10T12:35:19;17.60;99.90
24158;DHT22;12316;50.904;4.200;2023-05-10T12:37:47;17.70;99.90
24158;DHT22;12316;50.904;4.200;2023-05-10T12:40:13;17.60;99.90
24158;DHT22;12316;50.904;4.200;2023-05-10T12:42:39;17.80;99.90
24158;DHT22;12316;50.904;4.200;2023-05-10T12:45:06;17.70;99.90
24158;DHT22;12316;50.904;4.200;2023-05-10T12:47:33;17.70;99.90
24158;DHT22;12316;50.904;4.200;2023-05-10T12:50:00;17.70;99.90
24158;DHT22;12316;50.904;4.200;2023-05-10T12:52:26;17.90;99.90
24158;DHT22;12316;50.904;4.200;2023-05-10T12:54:53;18.10;99.90
24158;DHT22;12316;50.904;4.200;2023-05-10T12:57:20;17.90;99.90
24158;DHT22;12316;50.904;4.200;2023-05-10T12:59:45;18.00;99.90
24158;DHT22;12316;50.904;4.200;2023-05-10T13:02:11;17.90;99.90
24158;DHT22;12316;50.904;4.200;2023-05-10T13:04:37;18.10;99.90
24158;DHT22;12316;50.904;4.200;2023-05-10T13:07:08;18.00;99.90
24158;DHT22;12316;50.904;4.200;2023-05-10T13:09:34;17.90;99.90
24158;DHT22;12316;50.904;4.200;2023-05-10T13:12:00;18.00;99.90
24158;DHT22;12316;50.904;4.200;2023-05-10T13:14:26;18.30;99.90
24158;DHT22;12316;50.904;4.200;2023-05-10T13:16:52;18.20;99.90
24158;DHT22;12316;50.904;4.200;2023-05-10T13:19:17;18.20;99.90
24158;DHT22;12316;50.904;4.200;2023-05-10T13:21:44;18.30;99.90
24158;DHT22;12316;50.904;4.200;2023-05-10T13:24:10;18.20;99.90
24158;DHT22;12316;50.904;4.200;2023-05-10T13:26:42;18.30;99.90
24158;DHT22;12316;50.904;4.200;2023-05-10T13:29:08;18.40;99.90
24158;DHT22;12316;50.904;4.200;2023-05-10T13:31:34;18.50;99.90
24158;DHT22;12316;50.904;4.200;2023-05-10T13:34:00;18.50;99.90
24158;DHT22;12316;50.904;4.200;2023-05-10T13:36:25;18.60;99.90
24158;DHT22;12316;50.904;4.200;2023-05-10T13:38:51;18.50;99.90
24158;DHT22;12316;50.904;4.200;2023-05-10T13:41:17;18.50;99.90
24158;DHT22;12316;50.904;4.200;2023-05-10T13:43:43;18.30;99.90
24158;DHT22;12316;50.904;4.200;2023-05-10T13:46:09;18.30;99.90
24158;DHT22;12316;50.904;4.200;2023-05-10T13:48:34;18.20;99.90
24158;DHT22;12316;50.904;4.200;2023-05-10T13:51:02;18.20;99.90
24158;DHT22;12316;50.904;4.200;2023-05-10T13:53:27;18.10;99.90
24158;DHT22;12316;50.904;4.200;2023-05-10T13:55:54;18.30;99.90
24158;DHT22;12316;50.904;4.200;2023-05-10T13:58:20;18.70;99.90
24158;DHT22;12316;50.904;4.200;2023-05-10T14:00:46;18.80;99.90
24158;DHT22;12316;50.904;4.200;2023-05-10T14:03:11;18.90;99.90
24158;DHT22;12316;50.904;4.200;2023-05-10T14:05:37;18.90;99.90
24158;DHT22;12316;50.904;4.200;2023-05-10T14:08:03;18.90;99.90
24158;DHT22;12316;50.904;4.200;2023-05-10T14:10:29;19.00;99.90
24158;DHT22;12316;50.904;4.200;2023-05-10T14:12:55;19.00;99.90
24158;DHT22;12316;50.904;4.200;2023-05-10T14:15:21;19.30;99.90
24158;DHT22;12316;50.904;4.200;2023-05-10T14:17:46;19.50;99.90
24158;DHT22;12316;50.904;4.200;2023-05-10T14:20:12;19.50;99.90
24158;DHT22;12316;50.904;4.200;2023-05-10T14:22:38;19.30;99.90
24158;DHT22;12316;50.904;4.200;2023-05-10T14:25:03;18.90;99.90
24158;DHT22;12316;50.904;4.200;2023-05-10T14:27:29;18.70;99.90
24158;DHT22;12316;50.904;4.200;2023-05-10T14:29:55;18.80;99.90
24158;DHT22;12316;50.904;4.200;2023-05-10T14:32:21;18.70;99.90
24158;DHT22;12316;50.904;4.200;2023-05-10T14:34:47;18.60;99.90
24158;DHT22;12316;50.904;4.200;2023-05-10T14:37:13;18.40;99.90
24158;DHT22;12316;50.904;4.200;2023-05-10T14:39:39;18.30;99.90
24158;DHT22;12316;50.904;4.200;2023-05-10T14:42:05;17.90;99.90
24158;DHT22;12316;50.904;4.200;2023-05-10T14:44:32;17.80;99.90
24158;DHT22;12316;50.904;4.200;2023-05-10T14:46:58;17.60;99.90
24158;DHT22;12316;50.904;4.200;2023-05-10T14:49:23;17.20;99.90
24158;DHT22;12316;50.904;4.200;2023-05-10T14:51:51;17.10;99.90
24158;DHT22;12316;50.904;4.200;2023-05-10T14:54:18;16.90;99.90
24158;DHT22;12316;50.904;4.200;2023-05-10T14:56:44;16.80;99.90
24158;DHT22;12316;50.904;4.200;2023-05-10T14:59:10;16.60;99.90
24158;DHT22;12316;50.904;4.200;2023-05-10T15:01:36;16.60;99.90
24158;DHT22;12316;50.904;4.200;2023-05-10T15:04:03;16.40;99.90
24158;DHT22;12316;50.904;4.200;2023-05-10T15:06:33;16.40;99.90
24158;DHT22;12316;50.904;4.200;2023-05-10T15:09:00;16.30;99.90
24158;DHT22;12316;50.904;4.200;2023-05-10T15:11:26;16.20;99.90
24158;DHT22;12316;50.904;4.200;2023-05-10T15:13:52;16.10;99.90
24158;DHT22;12316;50.904;4.200;2023-05-10T15:16:18;15.90;99.90
24158;DHT22;12316;50.904;4.200;2023-05-10T15:18:43;15.70;99.90
24158;DHT22;12316;50.904;4.200;2023-05-10T15:21:09;15.70;99.90
24158;DHT22;12316;50.904;4.200;2023-05-10T15:23:35;15.70;99.90
24158;DHT22;12316;50.904;4.200;2023-05-10T15:26:01;15.50;99.90
24158;DHT22;12316;50.904;4.200;2023-05-10T15:28:28;15.40;99.90
24158;DHT22;12316;50.904;4.200;2023-05-10T15:30:54;15.40;99.90
24158;DHT22;12316;50.904;4.200;2023-05-10T15:33:19;15.40;99.90
24158;DHT22;12316;50.904;4.200;2023-05-10T15:35:45;15.40;99.90
24158;DHT22;12316;50.904;4.200;2023-05-10T15:38:11;15.50;99.90
24158;DHT22;12316;50.904;4.200;2023-05-10T15:40:36;15.60;99.90
24158;DHT22;12316;50.904;4.200;2023-05-10T15:43:02;15.70;99.90
24158;DHT22;12316;50.904;4.200;2023-05-10T15:45:28;15.70;99.90
24158;DHT22;12316;50.904;4.200;2023-05-10T15:47:53;15.70;99.90
24158;DHT22;12316;50.904;4.200;2023-05-10T15:50:19;15.70;99.90
24158;DHT22;12316;50.904;4.200;2023-05-10T15:52:45;15.70;99.90
24158;DHT22;12316;50.904;4.200;2023-05-10T15:55:10;15.80;99.90
24158;DHT22;12316;50.904;4.200;2023-05-10T15:57:41;15.80;99.90
24158;DHT22;12316;50.904;4.200;2023-05-10T16:00:08;15.70;99.90
24158;DHT22;12316;50.904;4.200;2023-05-10T16:02:34;15.70;99.90
24158;DHT22;12316;50.904;4.200;2023-05-10T16:05:00;15.70;99.90
24158;DHT22;12316;50.904;4.200;2023-05-10T16:07:28;15.80;99.90
24158;DHT22;12316;50.904;4.200;2023-05-10T16:09:57;16.00;99.90
24158;DHT22;12316;50.904;4.200;2023-05-10T16:12:23;16.00;99.90